Time;durP1;ratioP1;P1;durP2;ratioP2;P2;SDS_P1;SDS_P2;PMS_P1;PMS_P2;Temp;Humidity;BMP_temperature;BMP_pressure;BME280_temperature;BME280_humidity;BME280_pressure;Samples;Min_cycle;Max_cycle;Signal;HPM_P1;HPM_P2
2022/07/01 00:01:41;;;;;;;4.95;1.40;;;15.30;99.90;;;;;;5053843;28;20061;-78
2022/07/01 00:04:07;;;;;;;5.60;1.50;;;15.30;99.90;;;;;;5085451;28;20108;-75
2022/07/01 00:06:33;;;;;;;8.30;1.50;;;15.30;99.90;;;;;;5044040;28;20036;-74
2022/07/01 00:09:20;;;;;;;6.80;1.65;;;15.40;99.90;;;;;;5057406;28;20102;-77
2022/07/01 00:11:46;;;;;;;4.55;1.35;;;15.40;99.90;;;;;;5031488;28;20097;-75
2022/07/01 00:14:11;;;;;;;4.07;1.45;;;15.30;99.90;;;;;;5035660;28;20493;-77
2022/07/01 00:16:40;;;;;;;5.07;1.50;;;15.30;99.90;;;;;;5064769;28;20055;-76
2022/07/01 00:19:06;;;;;;;6.05;1.58;;;15.40;99.90;;;;;;5060362;28;20048;-78
2022/07/01 00:21:32;;;;;;;4.53;1.20;;;15.50;99.90;;;;;;5073068;28;20052;-75
2022/07/01 00:23:58;;;;;;;3.38;1.38;;;15.40;99.90;;;;;;5027938;28;20041;-77
2022/07/01 00:26:24;;;;;;;5.25;1.42;;;15.40;99.90;;;;;;5016002;28;20120;-79
2022/07/01 00:28:53;;;;;;;5.93;1.67;;;15.50;99.90;;;;;;5077544;28;20475;-78
2022/07/01 00:31:18;;;;;;;4.25;1.60;;;15.50;99.90;;;;;;5074758;28;20040;-78
2022/07/01 00:33:44;;;;;;;5.20;1.88;;;15.50;99.90;;;;;;5026594;28;20056;-81
2022/07/01 00:36:10;;;;;;;8.35;2.10;;;15.50;99.90;;;;;;5023468;28;20037;-76
2022/07/01 00:38:36;;;;;;;3.88;1.60;;;15.50;99.90;;;;;;5077543;28;20041;-77
2022/07/01 00:41:01;;;;;;;6.05;1.85;;;15.50;99.90;;;;;;5057433;28;20051;-75
2022/07/01 00:43:27;;;;;;;4.65;1.63;;;15.50;99.90;;;;;;5058178;28;20056;-77
2022/07/01 00:45:53;;;;;;;8.15;1.95;;;15.60;99.90;;;;;;5045378;28;20364;-78
2022/07/01 00:48:20;;;;;;;4.72;1.50;;;15.50;99.90;;;;;;5047155;28;20045;-77
2022/07/01 00:50:47;;;;;;;4.47;1.65;;;15.50;99.90;;;;;;5028836;28;20055;-76
2022/07/01 00:53:15;;;;;;;8.35;2.00;;;15.50;99.90;;;;;;5044749;28;20052;-77
2022/07/01 00:55:45;;;;;;;4.82;1.50;;;15.50;99.90;;;;;;5046929;28;20049;-76
2022/07/01 00:58:11;;;;;;;6.05;1.63;;;15.60;99.90;;;;;;5045739;28;20038;-77
2022/07/01 01:00:40;;;;;;;3.80;1.52;;;15.50;99.90;;;;;;5035723;28;20045;-77
2022/07/01 01:03:10;;;;;;;3.45;1.15;;;15.50;99.90;;;;;;5045077;28;20041;-79
2022/07/01 01:05:37;;;;;;;3.20;1.13;;;15.40;99.90;;;;;;5046581;28;20290;-78
2022/07/01 01:08:03;;;;;;;5.22;1.30;;;15.50;99.90;;;;;;5027616;28;20060;-75
2022/07/01 01:10:30;;;;;;;5.65;1.30;;;15.50;99.90;;;;;;5045807;28;20409;-79
2022/07/01 01:12:57;;;;;;;6.03;1.10;;;15.70;99.90;;;;;;5072813;28;20045;-77
2022/07/01 01:15:23;;;;;;;6.47;1.30;;;15.50;99.90;;;;;;5044778;28;20421;-78
2022/07/01 01:17:50;;;;;;;2.08;1.00;;;15.50;99.90;;;;;;5032323;28;20926;-75
2022/07/01 01:20:19;;;;;;;3.22;1.00;;;15.60;99.90;;;;;;5047081;28;20160;-76
2022/07/01 01:22:47;;;;;;;2.45;1.08;;;15.40;99.90;;;;;;5056734;28;20045;-73
2022/07/01 01:25:16;;;;;;;2.05;1.00;;;15.40;99.90;;;;;;5067315;28;20021;-72
2022/07/01 01:27:45;;;;;;;4.43;1.48;;;15.50;99.90;;;;;;5051992;28;20147;-73
2022/07/01 01:30:13;;;;;;;3.05;1.23;;;15.40;99.90;;;;;;5070430;28;20036;-72
2022/07/01 01:32:40;;;;;;;4.60;1.15;;;15.40;99.90;;;;;;5074688;28;20029;-79
2022/07/01 01:35:07;;;;;;;4.20;1.30;;;15.40;99.90;;;;;;5048334;28;20055;-76
2022/07/01 01:37:33;;;;;;;3.30;1.13;;;15.40;99.90;;;;;;5064769;28;20101;-75
2022/07/01 01:39:59;;;;;;;2.10;1.15;;;15.40;99.90;;;;;;5066480;28;20029;-75
2022/07/01 01:42:25;;;;;;;6.45;1.38;;;15.50;99.90;;;;;;5044561;28;20200;-80
2022/07/01 01:44:50;;;;;;;7.60;1.60;;;15.30;99.90;;;;;;5026249;28;20075;-77
2022/07/01 01:47:16;;;;;;;3.20;1.27;;;15.30;99.90;;;;;;5076227;28;20048;-75
2022/07/01 01:49:45;;;;;;;5.35;1.23;;;15.20;99.90;;;;;;5075001;28;20034;-79
2022/07/01 01:52:14;;;;;;;3.33;1.30;;;15.30;99.90;;;;;;5048035;28;20719;-76
2022/07/01 01:54:39;;;;;;;4.72;1.70;;;15.20;99.90;;;;;;5042972;28;20048;-78
2022/07/01 01:57:05;;;;;;;3.00;1.60;;;15.20;99.90;;;;;;5058055;28;20483;-78
2022/07/01 01:59:31;;;;;;;4.60;1.50;;;15.30;99.90;;;;;;5061631;28;20477;-77
2022/07/01 02:01:57;;;;;;;7.63;1.67;;;15.30;99.90;;;;;;5047550;28;20040;-75
2022/07/01 02:04:23;;;;;;;3.00;1.88;;;15.40;99.90;;;;;;5077970;28;20033;-75
2022/07/01 02:06:50;;;;;;;3.88;1.60;;;15.30;99.90;;;;;;5046751;28;20036;-76
2022/07/01 02:09:16;;;;;;;3.60;1.48;;;15.40;99.90;;;;;;5079981;28;20072;-81
2022/07/01 02:11:41;;;;;;;6.72;1.67;;;15.40;99.90;;;;;;5046163;28;20087;-76
2022/07/01 02:14:07;;;;;;;3.83;1.48;;;15.40;99.90;;;;;;5043314;28;20460;-75
2022/07/01 02:16:33;;;;;;;4.03;1.33;;;15.30;99.90;;;;;;5030879;28;20380;-77
2022/07/01 02:18:58;;;;;;;3.05;1.08;;;15.30;99.90;;;;;;5029794;28;20061;-78
2022/07/01 02:21:24;;;;;;;3.10;1.05;;;15.30;99.90;;;;;;5042988;28;20400;-76
2022/07/01 02:23:52;;;;;;;3.38;1.10;;;15.30;99.90;;;;;;5046664;28;20114;-77
2022/07/01 02:26:18;;;;;;;5.90;1.27;;;15.20;99.90;;;;;;5025048;28;20037;-76
2022/07/01 02:28:44;;;;;;;4.32;1.30;;;15.30;99.90;;;;;;5029301;28;20037;-78
2022/07/01 02:31:10;;;;;;;5.00;1.30;;;15.20;99.90;;;;;;5044261;28;20101;-75
2022/07/01 02:33:35;;;;;;;3.53;1.27;;;15.20;99.90;;;;;;5054109;28;20053;-77
2022/07/01 02:36:01;;;;;;;4.93;1.35;;;15.20;99.90;;;;;;5046902;28;20215;-79
2022/07/01 02:38:29;;;;;;;2.42;1.40;;;15.20;99.90;;;;;;5051037;28;20901;-76
2022/07/01 02:40:55;;;;;;;3.97;1.30;;;15.20;99.90;;;;;;5042060;28;20036;-77
2022/07/01 02:43:21;;;;;;;3.55;1.50;;;15.10;99.90;;;;;;5043464;28;20090;-78
2022/07/01 02:45:46;;;;;;;5.35;1.60;;;15.30;99.90;;;;;;5052464;28;20041;-79
2022/07/01 02:48:13;;;;;;;7.25;1.70;;;15.10;99.90;;;;;;5043705;28;20090;-76
2022/07/01 02:50:39;;;;;;;4.38;1.98;;;15.20;99.90;;;;;;5091941;28;20037;-78
2022/07/01 02:53:04;;;;;;;6.55;1.90;;;15.00;99.90;;;;;;5032283;28;20049;-74
2022/07/01 02:55:30;;;;;;;3.75;2.08;;;15.10;99.90;;;;;;5062121;28;20090;-77
2022/07/01 02:57:57;;;;;;;4.97;2.30;;;15.00;99.90;;;;;;5082405;28;20525;-77
2022/07/01 03:00:23;;;;;;;6.32;2.00;;;14.90;99.90;;;;;;5027953;28;20037;-78
2022/07/01 03:02:50;;;;;;;5.05;2.38;;;14.90;99.90;;;;;;5029002;28;20048;-79
2022/07/01 03:05:16;;;;;;;4.07;2.20;;;14.90;99.90;;;;;;5030523;28;20032;-77
2022/07/01 03:07:45;;;;;;;2.95;2.35;;;15.00;99.90;;;;;;5027049;28;20041;-77
2022/07/01 03:10:10;;;;;;;10.43;2.58;;;14.90;99.90;;;;;;5073858;28;20141;-75
2022/07/01 03:12:38;;;;;;;7.93;2.65;;;14.90;99.90;;;;;;5028893;28;20107;-76
2022/07/01 03:15:04;;;;;;;5.97;2.22;;;14.90;99.90;;;;;;5042524;28;20060;-81
2022/07/01 03:17:31;;;;;;;3.58;2.33;;;14.90;99.90;;;;;;5058323;28;20480;-76
2022/07/01 03:19:57;;;;;;;4.15;2.35;;;14.90;99.90;;;;;;5042601;28;20055;-76
2022/07/01 03:22:25;;;;;;;6.35;2.50;;;14.80;99.90;;;;;;5056430;28;20052;-75
2022/07/01 03:24:51;;;;;;;4.13;2.60;;;14.90;99.90;;;;;;5045449;28;20037;-78
2022/07/01 03:27:18;;;;;;;6.35;2.60;;;14.80;99.90;;;;;;5043555;28;20051;-79
2022/07/01 03:29:44;;;;;;;8.43;2.75;;;14.80;99.90;;;;;;5029040;28;20071;-75
2022/07/01 03:32:11;;;;;;;3.53;2.38;;;14.80;99.90;;;;;;5075445;28;20037;-78
2022/07/01 03:34:41;;;;;;;4.60;2.67;;;14.90;99.90;;;;;;5044729;28;20087;-81
2022/07/01 03:37:08;;;;;;;9.02;2.88;;;14.80;99.90;;;;;;5045163;28;20041;-80
2022/07/01 03:39:35;;;;;;;5.40;2.72;;;14.80;99.90;;;;;;5065736;28;20053;-74
2022/07/01 03:42:01;;;;;;;5.10;2.60;;;14.80;99.90;;;;;;5093254;28;20044;-82
2022/07/01 03:44:27;;;;;;;4.07;2.75;;;14.90;99.90;;;;;;5045011;28;20111;-79
2022/07/01 03:46:53;;;;;;;4.45;2.75;;;14.80;99.90;;;;;;5077845;28;20045;-78
2022/07/01 03:49:19;;;;;;;5.10;2.40;;;14.90;99.90;;;;;;5051163;28;20037;-77
2022/07/01 03:51:45;;;;;;;7.30;2.63;;;14.90;99.90;;;;;;5047955;28;20353;-75
2022/07/01 03:57:03;;;;;;;4.25;2.67;;;14.90;99.90;;;;;;5075918;28;20045;-78
2022/07/01 03:59:30;;;;;;;6.03;2.90;;;14.90;99.90;;;;;;5041093;28;20057;-76
2022/07/01 04:01:57;;;;;;;5.78;3.00;;;14.90;99.90;;;;;;5020031;28;20052;-78
2022/07/01 04:04:24;;;;;;;5.68;2.90;;;15.00;99.90;;;;;;5027326;28;20121;-75
2022/07/01 04:06:50;;;;;;;6.10;2.92;;;15.00;99.90;;;;;;5034754;28;20076;-79
2022/07/01 04:09:34;;;;;;;5.95;2.90;;;15.00;99.90;;;;;;5068015;28;20057;-74
2022/07/01 04:12:00;;;;;;;4.27;3.10;;;15.00;99.90;;;;;;5038999;28;20040;-76
2022/07/01 04:14:25;;;;;;;6.97;3.42;;;15.10;99.90;;;;;;5057123;28;20132;-80
2022/07/01 04:16:52;;;;;;;6.13;3.33;;;15.00;99.90;;;;;;5029483;28;20199;-77
2022/07/01 04:19:17;;;;;;;5.85;2.85;;;15.00;99.90;;;;;;5044045;28;21679;-77
2022/07/01 04:24:28;;;;;;;8.25;3.67;;;15.10;99.90;;;;;;5042522;28;20480;-77
2022/07/01 04:26:54;;;;;;;8.30;3.65;;;15.10;99.90;;;;;;5053954;28;20084;-80
2022/07/01 04:29:20;;;;;;;5.93;3.65;;;15.10;99.90;;;;;;5041708;28;20060;-78
2022/07/01 04:31:47;;;;;;;7.93;3.83;;;15.20;99.90;;;;;;5029650;28;20723;-78
2022/07/01 04:34:13;;;;;;;5.45;3.60;;;15.10;99.90;;;;;;5041001;28;20131;-80
2022/07/01 04:36:39;;;;;;;4.47;3.17;;;15.20;99.90;;;;;;5055360;28;20127;-80
2022/07/01 04:39:05;;;;;;;6.90;4.05;;;15.20;99.90;;;;;;5047574;28;20049;-81
2022/07/01 04:44:17;;;;;;;6.70;3.90;;;15.20;99.90;;;;;;5042089;28;20127;-77
2022/07/01 04:46:43;;;;;;;4.57;3.45;;;15.20;99.90;;;;;;5040533;28;20492;-80
2022/07/01 04:49:08;;;;;;;6.30;4.10;;;15.20;99.90;;;;;;5050078;28;20136;-78
2022/07/01 04:51:34;;;;;;;9.98;4.40;;;15.20;99.90;;;;;;5055885;28;20041;-80
2022/07/01 04:54:05;;;;;;;10.00;4.40;;;15.20;99.90;;;;;;5071103;28;20064;-74
2022/07/01 04:56:33;;;;;;;8.52;4.32;;;15.20;99.90;;;;;;5040983;28;20514;-76
2022/07/01 04:58:59;;;;;;;5.50;4.57;;;15.30;99.90;;;;;;5025958;28;20041;-79
2022/07/01 05:01:25;;;;;;;7.47;4.53;;;15.30;99.90;;;;;;5042789;28;20075;-77
2022/07/01 05:03:50;;;;;;;7.88;4.75;;;15.30;99.90;;;;;;5072782;28;20029;-80
2022/07/01 05:06:16;;;;;;;7.22;4.57;;;15.30;99.90;;;;;;5040388;28;20884;-79
2022/07/01 05:08:44;;;;;;;10.07;5.30;;;15.30;99.90;;;;;;5040670;28;20672;-76
2022/07/01 05:11:10;;;;;;;8.07;5.32;;;15.30;99.90;;;;;;5041790;28;20447;-77
2022/07/01 05:13:36;;;;;;;11.20;6.75;;;15.30;99.90;;;;;;5040857;28;20146;-76
2022/07/01 05:16:03;;;;;;;11.60;7.35;;;15.40;99.90;;;;;;5032186;28;20059;-81
2022/07/01 05:23:59;;;;;;;14.10;9.00;;;15.40;99.90;;;;;;5038849;28;20048;-80
2022/07/01 05:26:25;;;;;;;15.27;9.15;;;15.50;99.90;;;;;;5072977;28;21630;-77
2022/07/01 05:28:53;;;;;;;17.40;10.55;;;15.40;99.90;;;;;;5063360;28;20040;-74
2022/07/01 05:31:19;;;;;;;19.40;11.48;;;15.50;99.90;;;;;;5055308;28;20230;-73
2022/07/01 05:33:45;;;;;;;18.80;12.77;;;15.50;99.90;;;;;;5087429;28;20180;-73
2022/07/01 05:36:11;;;;;;;20.13;14.00;;;15.60;99.90;;;;;;5037913;28;20061;-73
2022/07/01 05:38:37;;;;;;;20.38;14.98;;;15.60;99.90;;;;;;5039193;28;20057;-74
2022/07/01 05:41:03;;;;;;;23.30;15.82;;;15.60;99.90;;;;;;5029664;28;20072;-74
2022/07/01 05:43:29;;;;;;;20.63;16.27;;;15.60;99.90;;;;;;5028492;28;20088;-79
2022/07/01 05:45:55;;;;;;;23.95;16.80;;;15.70;99.90;;;;;;5051194;28;20041;-78
2022/07/01 05:48:21;;;;;;;24.08;16.75;;;15.70;99.90;;;;;;5019841;28;20072;-76
2022/07/01 05:50:47;;;;;;;25.27;16.17;;;15.70;99.90;;;;;;5059730;28;20044;-74
2022/07/01 05:53:13;;;;;;;31.17;17.65;;;15.80;99.90;;;;;;5075715;28;20484;-77
2022/07/01 05:55:38;;;;;;;26.85;17.25;;;15.90;99.90;;;;;;5045097;28;20481;-77
2022/07/01 05:58:06;;;;;;;28.38;18.13;;;16.00;99.90;;;;;;5046971;28;20047;-77
2022/07/01 06:00:32;;;;;;;26.83;18.48;;;16.00;99.90;;;;;;5022337;28;20131;-74
2022/07/01 06:02:57;;;;;;;34.40;19.17;;;16.10;99.90;;;;;;5078320;28;20119;-77
2022/07/01 06:05:23;;;;;;;28.58;18.45;;;16.10;99.90;;;;;;5079344;28;20029;-79
2022/07/01 06:07:49;;;;;;;26.50;17.73;;;16.30;99.90;;;;;;5072495;28;20037;-77
2022/07/01 06:10:14;;;;;;;28.25;17.95;;;16.30;99.90;;;;;;5041772;28;20040;-79
2022/07/01 06:12:41;;;;;;;26.13;18.15;;;16.40;99.90;;;;;;5038072;28;20084;-76
2022/07/01 06:15:11;;;;;;;27.27;19.13;;;16.50;99.90;;;;;;5056991;28;20053;-77
2022/07/01 06:17:38;;;;;;;25.27;18.83;;;16.60;99.90;;;;;;5020469;28;20387;-78
2022/07/01 06:20:05;;;;;;;26.70;19.48;;;16.60;99.90;;;;;;5070767;28;20460;-76
2022/07/01 06:22:32;;;;;;;28.30;18.85;;;16.80;99.90;;;;;;5039802;28;20075;-74
2022/07/01 06:24:58;;;;;;;28.38;17.58;;;16.80;99.90;;;;;;5067744;28;20134;-79
2022/07/01 06:27:24;;;;;;;25.60;17.70;;;17.00;99.90;;;;;;5025655;28;20136;-78
2022/07/01 06:29:53;;;;;;;24.55;18.55;;;16.90;99.90;;;;;;5049235;28;20151;-75
2022/07/01 06:32:19;;;;;;;27.30;17.85;;;16.80;99.90;;;;;;5073769;28;20083;-79
2022/07/01 06:34:46;;;;;;;30.92;18.48;;;17.00;99.90;;;;;;5067949;28;20476;-77
2022/07/01 06:37:13;;;;;;;26.25;18.85;;;17.00;99.90;;;;;;5019658;28;20517;-78
2022/07/01 06:39:38;;;;;;;24.77;18.10;;;17.10;99.90;;;;;;5017844;28;20122;-76
2022/07/01 06:42:05;;;;;;;25.05;16.52;;;17.10;99.90;;;;;;5020832;28;20488;-82
2022/07/01 06:44:30;;;;;;;26.45;18.02;;;17.20;99.90;;;;;;5042930;28;20562;-79
2022/07/01 06:46:56;;;;;;;23.92;16.75;;;17.30;99.90;;;;;;5060281;28;20048;-79
2022/07/01 06:49:22;;;;;;;22.13;16.98;;;17.40;99.90;;;;;;5030165;28;20506;-80
2022/07/01 06:51:47;;;;;;;20.85;16.98;;;17.40;99.90;;;;;;5088322;28;20048;-77
2022/07/01 06:58:16;;;;;;;24.73;17.83;;;17.40;99.90;;;;;;5053329;28;20067;-76
2022/07/01 07:00:41;;;;;;;21.45;17.70;;;17.40;99.90;;;;;;5085701;28;20048;-76
2022/07/01 07:03:07;;;;;;;24.95;16.95;;;17.50;99.90;;;;;;5078610;28;20045;-82
2022/07/01 07:05:33;;;;;;;21.85;16.67;;;17.50;99.90;;;;;;5079565;28;20119;-82
2022/07/01 07:07:58;;;;;;;32.22;16.67;;;17.40;99.90;;;;;;5028722;28;20487;-77
2022/07/01 07:10:24;;;;;;;25.48;16.67;;;17.50;99.90;;;;;;5076121;28;20099;-76
2022/07/01 07:12:50;;;;;;;22.55;17.20;;;17.50;99.90;;;;;;5024645;28;20093;-77
2022/07/01 07:15:15;;;;;;;32.30;17.83;;;17.70;99.90;;;;;;5037067;28;20497;-75
2022/07/01 07:17:45;;;;;;;22.45;16.25;;;17.70;99.90;;;;;;5031452;28;20044;-79
2022/07/01 07:20:11;;;;;;;22.08;17.33;;;17.60;99.90;;;;;;5047153;28;20109;-77
2022/07/01 07:22:36;;;;;;;22.50;17.95;;;17.60;99.90;;;;;;5072650;28;20045;-76
2022/07/01 07:25:02;;;;;;;27.13;17.15;;;17.60;99.90;;;;;;5038678;28;20060;-76
2022/07/01 07:27:28;;;;;;;23.70;17.45;;;17.60;99.90;;;;;;5032053;28;20045;-80
2022/07/01 07:29:54;;;;;;;21.48;17.25;;;17.70;99.90;;;;;;5030402;28;20051;-83
2022/07/01 07:32:20;;;;;;;24.48;16.88;;;17.60;99.90;;;;;;5050653;28;20089;-79
2022/07/01 07:34:45;;;;;;;24.83;17.45;;;17.80;99.90;;;;;;5026444;28;20488;-76
2022/07/01 07:37:11;;;;;;;25.55;17.52;;;17.80;99.90;;;;;;5078524;28;20056;-77
2022/07/01 07:39:37;;;;;;;21.98;17.00;;;17.70;99.90;;;;;;5079062;28;20107;-78
2022/07/01 07:42:04;;;;;;;24.42;16.45;;;17.80;99.90;;;;;;5032335;28;20579;-80
2022/07/01 07:44:29;;;;;;;23.92;16.27;;;17.90;99.90;;;;;;5039456;28;20476;-81
2022/07/01 07:46:56;;;;;;;19.98;14.95;;;18.00;99.90;;;;;;5022613;28;20107;-76
2022/07/01 07:49:24;;;;;;;21.90;15.23;;;17.90;99.90;;;;;;5049091;28;20052;-78
2022/07/01 07:51:50;;;;;;;22.60;15.35;;;17.90;99.90;;;;;;5069878;28;20134;-80
2022/07/01 07:54:15;;;;;;;20.23;14.82;;;17.90;99.90;;;;;;5055861;28;20384;-82
2022/07/01 07:56:44;;;;;;;18.77;14.68;;;18.00;99.90;;;;;;5022156;28;20056;-82
2022/07/01 07:59:10;;;;;;;22.13;13.60;;;17.90;99.90;;;;;;5069142;28;20056;-82
2022/07/01 08:01:36;;;;;;;19.00;12.93;;;18.00;99.90;;;;;;5040259;28;20060;-75
2022/07/01 08:04:02;;;;;;;20.75;14.18;;;18.00;99.90;;;;;;5073655;28;20124;-77
2022/07/01 08:06:28;;;;;;;22.00;14.82;;;18.10;99.90;;;;;;5048661;28;20488;-78
2022/07/01 08:08:55;;;;;;;21.02;15.05;;;18.20;99.90;;;;;;5059963;28;20393;-79
2022/07/01 08:15:05;;;;;;;20.55;14.68;;;18.30;99.90;;;;;;5069978;28;20082;-78
2022/07/01 08:17:34;;;;;;;20.08;13.60;;;18.20;99.90;;;;;;5091597;28;20143;-81
2022/07/01 08:20:00;;;;;;;19.35;13.05;;;18.20;99.90;;;;;;5058478;28;20048;-77
2022/07/01 08:22:27;;;;;;;17.80;11.52;;;18.40;99.90;;;;;;5047512;28;20049;-77
2022/07/01 08:24:53;;;;;;;15.57;8.85;;;18.60;99.90;;;;;;5027508;28;20060;-79
2022/07/01 08:27:19;;;;;;;16.73;10.80;;;18.60;99.90;;;;;;5045251;28;20033;-78
2022/07/01 08:29:44;;;;;;;16.67;9.90;;;18.60;99.90;;;;;;5031097;28;20068;-78
2022/07/01 08:32:10;;;;;;;16.67;9.95;;;18.70;99.90;;;;;;5076078;28;20118;-76
2022/07/01 08:34:36;;;;;;;17.42;9.85;;;18.80;99.90;;;;;;5024707;28;20107;-76
2022/07/01 08:37:04;;;;;;;14.15;8.32;;;18.80;99.90;;;;;;5044364;28;20120;-78
2022/07/01 08:39:30;;;;;;;10.85;6.53;;;19.10;99.90;;;;;;5044780;28;20049;-80
2022/07/01 08:41:57;;;;;;;12.40;7.30;;;19.10;99.90;;;;;;5077786;28;20582;-76
2022/07/01 08:44:22;;;;;;;12.60;6.63;;;19.60;99.90;;;;;;5046820;28;20111;-76
2022/07/01 08:46:48;;;;;;;12.45;7.05;;;19.90;99.90;;;;;;5049187;28;20064;-80
2022/07/01 08:49:16;;;;;;;11.82;6.35;;;19.70;99.90;;;;;;5031667;28;20468;-79
2022/07/01 08:51:44;;;;;;;9.77;5.55;;;19.50;99.90;;;;;;5054597;28;20458;-77
2022/07/01 08:54:11;;;;;;;9.27;4.90;;;19.60;99.90;;;;;;5034037;28;20436;-79
2022/07/01 08:56:45;;;;;;;9.90;5.15;;;19.80;99.90;;;;;;5047191;28;20045;-80
2022/07/01 08:59:23;;;;;;;8.60;4.40;;;19.90;99.90;;;;;;5064339;28;20045;-78
2022/07/01 09:02:04;;;;;;;10.52;5.63;;;20.00;99.90;;;;;;5079039;28;20052;-78
2022/07/01 09:04:31;;;;;;;10.23;5.57;;;20.10;99.90;;;;;;5084952;28;20029;-77
2022/07/01 09:07:06;;;;;;;13.55;5.30;;;20.20;99.90;;;;;;5060130;28;20045;-77
2022/07/01 09:09:39;;;;;;;8.48;4.72;;;20.40;99.90;;;;;;5075770;28;20045;-79
2022/07/01 09:12:06;;;;;;;10.90;5.20;;;20.40;99.90;;;;;;5035822;28;20041;-81
2022/07/01 09:14:33;;;;;;;8.43;4.53;;;20.20;99.90;;;;;;5046731;28;20080;-76
2022/07/01 09:17:01;;;;;;;12.80;4.88;;;20.40;99.90;;;;;;5063758;28;20056;-77
2022/07/01 09:19:30;;;;;;;10.93;5.28;;;20.40;99.90;;;;;;5086472;28;20049;-79
2022/07/01 09:22:00;;;;;;;10.63;4.57;;;20.50;99.90;;;;;;5034850;28;20487;-81
2022/07/01 09:24:44;;;;;;;12.70;4.90;;;20.60;99.90;;;;;;5049087;28;20045;-79
2022/07/01 09:27:18;;;;;;;12.38;4.07;;;20.80;99.90;;;;;;5063002;28;20091;-80
2022/07/01 09:29:49;;;;;;;10.05;3.97;;;20.80;99.90;;;;;;5035032;28;20522;-74
2022/07/01 09:32:17;;;;;;;9.02;3.75;;;21.00;99.90;;;;;;5040658;28;20068;-79
2022/07/01 09:34:48;;;;;;;4.47;3.13;;;21.50;99.90;;;;;;5074529;28;20049;-76
2022/07/01 09:37:16;;;;;;;10.75;4.20;;;21.40;99.90;;;;;;5061258;28;20395;-75
2022/07/01 09:39:45;;;;;;;11.15;3.97;;;21.70;99.90;;;;;;5092603;28;20032;-79
2022/07/01 09:42:12;;;;;;;7.57;4.03;;;21.60;99.90;;;;;;5057080;28;20131;-78
2022/07/01 09:45:05;;;;;;;7.78;3.53;;;21.50;99.90;;;;;;5088674;28;20037;-81
2022/07/01 09:47:32;;;;;;;7.25;2.50;;;21.20;99.90;;;;;;5076711;28;20119;-77
2022/07/01 09:49:58;;;;;;;7.30;2.83;;;21.20;99.90;;;;;;5083414;28;20036;-80
2022/07/01 09:52:25;;;;;;;13.23;2.63;;;21.00;99.90;;;;;;5038761;28;20049;-83
2022/07/01 09:54:51;;;;;;;7.32;2.40;;;21.10;99.90;;;;;;5083654;28;20048;-80
2022/07/01 09:57:19;;;;;;;9.55;2.92;;;21.20;99.90;;;;;;5088262;28;20060;-84
2022/07/01 09:59:45;;;;;;;8.05;3.30;;;21.20;99.90;;;;;;5036265;28;20040;-80
2022/07/01 10:02:17;;;;;;;7.82;2.90;;;21.00;99.90;;;;;;5069072;28;20052;-79
2022/07/01 10:04:52;;;;;;;9.80;3.25;;;21.00;99.90;;;;;;5073517;28;20082;-79
2022/07/01 10:07:46;;;;;;;5.25;2.53;;;20.90;99.90;;;;;;5054060;28;20563;-78
2022/07/01 10:11:06;;;;;;;5.65;2.65;;;20.80;99.90;;;;;;5053481;28;20126;-75
2022/07/01 10:13:34;;;;;;;8.15;2.80;;;21.20;99.90;;;;;;4993938;28;20129;-80
2022/07/01 10:16:03;;;;;;;7.57;2.85;;;21.40;99.90;;;;;;4976479;28;20136;-76
2022/07/01 10:18:29;;;;;;;12.80;2.78;;;21.50;99.90;;;;;;4994927;28;20061;-76
2022/07/01 10:20:57;;;;;;;5.60;2.78;;;21.40;99.90;;;;;;4974024;28;20089;-80
2022/07/01 10:23:36;;;;;;;7.18;2.80;;;21.70;99.90;;;;;;4981419;28;20061;-79
2022/07/01 10:26:04;;;;;;;8.50;3.00;;;22.10;99.90;;;;;;4976786;28;20236;-77
2022/07/01 10:28:49;;;;;;;9.13;3.00;;;22.30;99.90;;;;;;4990728;28;20046;-77
2022/07/01 10:31:17;;;;;;;6.65;2.70;;;22.40;99.90;;;;;;4983051;28;20050;-77
2022/07/01 10:33:50;;;;;;;6.28;2.33;;;22.40;99.90;;;;;;4976467;28;20057;-77
2022/07/01 10:36:25;;;;;;;7.63;2.70;;;22.60;99.90;;;;;;4993555;28;20405;-82
2022/07/01 10:39:09;;;;;;;8.30;2.97;;;22.50;99.90;;;;;;4978522;28;20053;-77
2022/07/01 10:41:39;;;;;;;7.82;2.97;;;22.40;99.90;;;;;;4977540;28;20054;-81
2022/07/01 10:44:08;;;;;;;6.25;2.80;;;22.50;99.90;;;;;;4977919;28;20038;-79
2022/07/01 10:46:44;;;;;;;9.40;3.20;;;22.60;99.90;;;;;;4991978;28;20140;-78
2022/07/01 10:49:36;;;;;;;10.00;4.47;;;22.60;99.90;;;;;;5057334;28;20040;-76
2022/07/01 10:52:14;;;;;;;8.93;3.58;;;22.40;99.90;;;;;;5038980;28;20128;-81
2022/07/01 10:54:40;;;;;;;8.15;3.40;;;22.60;99.90;;;;;;5056462;28;20040;-82
2022/07/01 10:57:23;;;;;;;6.40;2.63;;;22.80;99.90;;;;;;5047780;28;20055;-75
2022/07/01 10:59:58;;;;;;;10.03;2.67;;;22.90;99.90;;;;;;5078254;28;20045;-80
2022/07/01 11:02:29;;;;;;;6.32;2.90;;;22.40;99.90;;;;;;5058680;28;20298;-76
2022/07/01 11:04:58;;;;;;;7.93;2.65;;;22.10;99.90;;;;;;5104022;28;20037;-76
2022/07/01 11:07:26;;;;;;;3.90;1.20;;;21.60;99.90;;;;;;5084838;28;20471;-79
2022/07/01 11:09:52;;;;;;;6.15;1.75;;;20.90;99.90;;;;;;5069027;28;20383;-82
2022/07/01 11:12:23;;;;;;;5.15;1.48;;;20.40;99.90;;;;;;5052595;28;20102;-78
2022/07/01 11:14:49;;;;;;;6.32;1.75;;;20.00;99.90;;;;;;5036209;28;20045;-80
2022/07/01 11:17:15;;;;;;;7.68;1.40;;;19.60;99.90;;;;;;5043443;28;20114;-82
2022/07/01 11:19:49;;;;;;;6.38;1.20;;;19.50;99.90;;;;;;5088065;28;20036;-80
2022/07/01 11:22:24;;;;;;;4.30;1.20;;;19.40;99.90;;;;;;5065018;28;20047;-77
2022/07/01 11:24:58;;;;;;;5.00;1.02;;;19.40;99.90;;;;;;5029880;28;20048;-77
2022/07/01 11:27:24;;;;;;;5.47;1.02;;;19.40;99.90;;;;;;5085124;28;20119;-79
2022/07/01 11:29:59;;;;;;;3.00;1.00;;;19.10;99.90;;;;;;5077471;28;20048;-76
2022/07/01 11:32:29;;;;;;;;;;;19.10;99.90;;;;;;5079500;28;20106;-79
2022/07/01 11:34:56;;;;;;;4.03;0.93;;;19.20;99.90;;;;;;5054282;28;19922;-79
2022/07/01 11:40:14;;;;;;;2.33;0.90;;;19.60;99.90;;;;;;5086059;28;20054;-81
2022/07/01 11:42:41;;;;;;;2.47;1.20;;;19.80;99.90;;;;;;5067453;28;20068;-79
2022/07/01 11:45:07;;;;;;;4.50;1.10;;;20.30;99.90;;;;;;5089745;28;20057;-80
2022/07/01 11:47:33;;;;;;;3.17;1.10;;;21.00;99.90;;;;;;5043565;28;20052;-78
2022/07/01 11:50:00;;;;;;;6.13;1.17;;;21.10;99.90;;;;;;5034669;28;20110;-79
2022/07/01 11:52:26;;;;;;;7.65;1.23;;;21.00;99.90;;;;;;5037292;28;20052;-80
2022/07/01 11:54:59;;;;;;;4.10;1.13;;;21.00;99.90;;;;;;5036517;28;20055;-81
2022/07/01 11:57:28;;;;;;;4.53;1.20;;;20.90;99.90;;;;;;5086081;28;20094;-80
2022/07/01 11:59:56;;;;;;;5.05;1.25;;;20.90;99.90;;;;;;5050797;28;20052;-82
2022/07/01 12:02:23;;;;;;;3.97;1.25;;;21.00;99.90;;;;;;5050607;28;20169;-78
2022/07/01 12:04:50;;;;;;;4.40;1.30;;;21.10;99.90;;;;;;5083726;28;20044;-76
2022/07/01 12:07:21;;;;;;;6.13;1.48;;;21.60;99.90;;;;;;5029673;28;20047;-80
2022/07/01 12:09:47;;;;;;;4.68;1.50;;;22.20;99.90;;;;;;5028288;28;20508;-82
2022/07/01 12:12:18;;;;;;;6.13;1.40;;;22.20;99.90;;;;;;5048181;28;20071;-77
2022/07/01 12:15:13;;;;;;;6.28;1.38;;;22.30;99.90;;;;;;5032599;28;20063;-78
2022/07/01 12:17:39;;;;;;;6.75;1.45;;;22.60;99.90;;;;;;5060646;28;20100;-73
2022/07/01 12:20:05;;;;;;;4.57;1.23;;;22.70;99.90;;;;;;5058343;28;20047;-74
2022/07/01 12:22:31;;;;;;;5.03;1.35;;;22.70;99.90;;;;;;5050501;28;20076;-76
2022/07/01 12:25:16;;;;;;;7.80;1.20;;;22.70;99.90;;;;;;5075885;28;20143;-78
2022/07/01 12:27:43;;;;;;;3.63;1.20;;;22.40;99.90;;;;;;5029392;28;20056;-82
2022/07/01 12:30:10;;;;;;;3.92;1.05;;;22.20;99.90;;;;;;5041658;28;20143;-76
2022/07/01 12:32:39;;;;;;;3.83;1.10;;;22.20;99.90;;;;;;5045187;28;20063;-79
2022/07/01 12:35:33;;;;;;;10.07;1.50;;;22.40;99.90;;;;;;5080175;28;20037;-78
2022/07/01 12:37:53;;;;;;;6.30;1.20;;;22.50;99.90;;;;;;5044153;28;20049;-81
2022/07/01 12:40:24;;;;;;;7.20;1.65;;;23.10;99.90;;;;;;5051809;28;21126;-80
2022/07/01 12:42:49;;;;;;;5.32;1.20;;;23.50;99.90;;;;;;5051333;28;20048;-77
2022/07/01 12:45:22;;;;;;;4.53;1.20;;;23.70;99.90;;;;;;5084432;28;20443;-79
2022/07/01 12:47:55;;;;;;;4.88;1.13;;;23.30;99.90;;;;;;5068353;28;20036;-80
2022/07/01 12:50:23;;;;;;;7.13;1.07;;;23.10;99.90;;;;;;5061411;28;20052;-76
2022/07/01 12:53:01;;;;;;;3.83;1.08;;;22.80;99.90;;;;;;5083606;28;20813;-78
2022/07/01 12:55:30;;;;;;;5.65;0.90;;;22.90;99.90;;;;;;5083196;28;20432;-78
2022/07/01 12:57:59;;;;;;;4.55;1.05;;;23.00;99.90;;;;;;5052495;28;20036;-80
2022/07/01 13:00:27;;;;;;;5.00;1.13;;;22.60;99.90;;;;;;5019558;28;20040;-79
2022/07/01 13:02:54;;;;;;;6.38;1.08;;;22.80;99.90;;;;;;5031882;28;20492;-74
2022/07/01 13:05:20;;;;;;;3.30;0.90;;;23.20;99.90;;;;;;5083093;28;20047;-78
2022/07/01 13:07:46;;;;;;;4.20;1.02;;;23.00;99.90;;;;;;5049447;28;20123;-80
2022/07/01 13:10:14;;;;;;;5.05;1.00;;;22.80;99.90;;;;;;5056176;28;20444;-80